地図

経路データ

SID SEASON NUMBER BASIN SUBBASIN NAME ISO_TIME NATURE LAT LON WMO_WIND WMO_PRES WMO_AGENCY TRACK_TYPE DIST2LAND LANDFALL IFLAG USA_AGENCY USA_ATCF_ID USA_LAT USA_LON USA_RECORD USA_STATUS USA_WIND USA_PRES USA_SSHS USA_R34_NE USA_R34_SE USA_R34_SW USA_R34_NW USA_R50_NE USA_R50_SE USA_R50_SW USA_R50_NW USA_R64_NE USA_R64_SE USA_R64_SW USA_R64_NW USA_POCI USA_ROCI USA_RMW USA_EYE TOKYO_LAT TOKYO_LON TOKYO_GRADE TOKYO_WIND TOKYO_PRES TOKYO_R50_DIR TOKYO_R50_LONG TOKYO_R50_SHORT TOKYO_R30_DIR TOKYO_R30_LONG TOKYO_R30_SHORT TOKYO_LAND CMA_LAT CMA_LON CMA_CAT CMA_WIND CMA_PRES HKO_LAT HKO_LON HKO_CAT HKO_WIND HKO_PRES NEWDELHI_LAT NEWDELHI_LON NEWDELHI_GRADE NEWDELHI_WIND NEWDELHI_PRES NEWDELHI_CI NEWDELHI_DP NEWDELHI_POCI REUNION_LAT REUNION_LON REUNION_TYPE REUNION_WIND REUNION_PRES REUNION_TNUM REUNION_CI REUNION_RMW REUNION_R34_NE REUNION_R34_SE REUNION_R34_SW REUNION_R34_NW REUNION_R50_NE REUNION_R50_SE REUNION_R50_SW REUNION_R50_NW REUNION_R64_NE REUNION_R64_SE REUNION_R64_SW REUNION_R64_NW BOM_LAT BOM_LON BOM_TYPE BOM_WIND BOM_PRES BOM_TNUM BOM_CI BOM_RMW BOM_R34_NE BOM_R34_SE BOM_R34_SW BOM_R34_NW BOM_R50_NE BOM_R50_SE BOM_R50_SW BOM_R50_NW BOM_R64_NE BOM_R64_SE BOM_R64_SW BOM_R64_NW BOM_ROCI BOM_POCI BOM_EYE BOM_POS_METHOD BOM_PRES_METHOD NADI_LAT NADI_LON NADI_CAT NADI_WIND NADI_PRES WELLINGTON_LAT WELLINGTON_LON WELLINGTON_WIND WELLINGTON_PRES DS824_LAT DS824_LON DS824_STAGE DS824_WIND DS824_PRES TD9636_LAT TD9636_LON TD9636_STAGE TD9636_WIND TD9636_PRES TD9635_LAT TD9635_LON TD9635_WIND TD9635_PRES TD9635_ROCI NEUMANN_LAT NEUMANN_LON NEUMANN_CLASS NEUMANN_WIND NEUMANN_PRES MLC_LAT MLC_LON MLC_CLASS MLC_WIND MLC_PRES USA_GUST BOM_GUST BOM_GUST_PER REUNION_GUST REUNION_GUST_PER USA_SEAHGT USA_SEARAD_NE USA_SEARAD_SE USA_SEARAD_SW USA_SEARAD_NW STORM_SPEED STORM_DIR
1989268N14261 1989 104 EP MM RAYMOND 1989-09-24 18:00:00 NR 14.0000 -98.9000 main 253 253 O_____________ jtwc_ep EP211989 14.0000 -98.9000 25 -1 4 187
1989268N14261 1989 104 EP MM RAYMOND 1989-09-24 21:00:00 NR 13.8000 -98.9025 main 273 273 P_____________ EP211989 13.8000 -98.9025 25 -1 3 197
1989268N14261 1989 104 EP MM RAYMOND 1989-09-25 00:00:00 TS 13.7000 -99.0000 25 1007 hurdat_epa main 287 287 O_________O___ hurdat_epa EP211989 13.7000 -99.0000 TD 25 1007 -1 13.7000 -99.0000 1 25 4 268
1989268N14261 1989 104 EP MM RAYMOND 1989-09-25 03:00:00 TS 13.7858 -99.2854 main 289 285 P_________P___ EP211989 13.7625 -99.2549 TD 25 1007 -1 13.7988 -99.3420 1 25 6 288
1989268N14261 1989 104 EP MM RAYMOND 1989-09-25 06:00:00 TS 13.8995 -99.6179 25 1007 hurdat_epa main 289 287 O_________P___ hurdat_epa EP211989 13.9000 -99.6000 TD 25 1007 -1 13.8979 -99.6773 1 25 7 288
1989268N14261 1989 104 EP MM RAYMOND 1989-09-25 09:00:00 TS 13.9939 -99.9623 main 298 295 P_________P___ EP211989 13.9925 -99.9501 TD 25 1007 -1 13.9981 -99.9990 1 25 7 287
1989268N14261 1989 104 EP MM RAYMOND 1989-09-25 12:00:00 TS 14.1000 -100.300 25 1007 hurdat_epa main 298 289 O_________O___ hurdat_epa EP211989 14.1000 -100.300 TD 25 1007 -1 14.1000 -100.300 1 25 7 292
1989268N14261 1989 104 EP MM RAYMOND 1989-09-25 15:00:00 TS 14.2441 -100.616 main 296 283 P_________P___ EP211989 14.2575 -100.630 TD 25 1007 -1 14.2039 -100.574 1 25 6 296
1989268N14261 1989 104 EP MM RAYMOND 1989-09-25 18:00:00 TS 14.3768 -100.879 25 1007 hurdat_epa main 287 287 O_________P___ hurdat_epa EP211989 14.4000 -100.900 TD 25 1007 -1 14.3074 -100.818 1 25 5 295
1989268N14261 1989 104 EP MM RAYMOND 1989-09-25 21:00:00 TS 14.4505 -101.067 main 288 288 P_________P___ EP211989 14.4649 -101.080 TD 25 1007 -1 14.4071 -101.027 1 25 3 292
1989268N14261 1989 104 EP MM RAYMOND 1989-09-26 00:00:00 TS 14.5000 -101.200 25 1007 hurdat_epa main 294 294 O_________O___ hurdat_epa EP211989 14.5000 -101.200 TD 25 1007 -1 14.5000 -101.200 1 25 3 292
1989268N14261 1989 104 EP MM RAYMOND 1989-09-26 03:00:00 TS 14.5473 -101.310 main 300 290 P_________P___ EP211989 14.5425 -101.308 TD 27 1006 -1 14.5617 -101.316 1 26 2 298
1989268N14261 1989 104 EP MM RAYMOND 1989-09-26 06:00:00 TS 14.6049 -101.400 30 1006 hurdat_epa main 295 289 O_________P___ hurdat_epa EP211989 14.6000 -101.400 TD 30 1006 -1 14.6197 -101.400 1 27 2 309
1989268N14261 1989 104 EP MM RAYMOND 1989-09-26 09:00:00 TS 14.6813 -101.485 main 289 281 P_________P___ EP211989 14.6775 -101.485 TD 30 1005 -1 14.6929 -101.485 1 28 3 315
1989268N14261 1989 104 EP MM RAYMOND 1989-09-26 12:00:00 TS 14.8000 -101.600 30 1005 hurdat_epa main 281 268 O_________O___ hurdat_epa EP211989 14.8000 -101.600 TD 30 1005 -1 14.8000 -101.600 1 30 4 316
1989268N14261 1989 104 EP MM RAYMOND 1989-09-26 15:00:00 TS 14.9809 -101.780 main 268 253 P_________P___ EP211989 14.9850 -101.777 TD 32 1004 -1 14.9763 -101.789 1 31 6 316
1989268N14261 1989 104 EP MM RAYMOND 1989-09-26 18:00:00 TS 15.1963 -102.003 35 1003 hurdat_epa main 253 242 O_________P___ hurdat_epa EP211989 15.2000 -102.000 TS 35 1003 0 15.1851 -102.012 1 32 6 314
1989268N14261 1989 104 EP MM RAYMOND 1989-09-26 21:00:00 TS 15.4147 -102.245 main 242 235 P_________P___ EP211989 15.4000 -102.243 TS 35 1002 0 15.4013 -102.254 1 33 6 312
1989268N14261 1989 104 EP MM RAYMOND 1989-09-27 00:00:00 TS 15.6250 -102.500 35 1001 hurdat_epa main 241 233 O_________O___ hurdat_epa EP211989 15.6000 -102.500 TS 35 1001 0 15.6000 -102.500 2 35 6 310
1989268N14261 1989 104 EP MM RAYMOND 1989-09-27 03:00:00 TS 15.8280 -102.749 main 237 222 P_________P___ EP211989 15.8225 -102.757 TS 37 1001 0 15.7871 -102.725 2 36 6 308
1989268N14261 1989 104 EP MM RAYMOND 1989-09-27 06:00:00 TS 15.9868 -102.987 40 1001 hurdat_epa main 225 218 O_________P___ hurdat_epa EP211989 16.0000 -103.000 TS 40 1001 0 15.9474 -102.950 2 37 5 301
1989268N14261 1989 104 EP MM RAYMOND 1989-09-27 09:00:00 TS 16.0841 -103.194 main 221 221 P_________P___ EP211989 16.0949 -103.200 TS 40 1001 0 16.0590 -103.175 2 38 4 286
1989268N14261 1989 104 EP MM RAYMOND 1989-09-27 12:00:00 TS 16.1000 -103.400 40 1001 hurdat_epa main 229 229 O_________O___ hurdat_epa EP211989 16.1000 -103.400 TS 40 1001 0 16.1000 -103.400 2 40 4 263
1989268N14261 1989 104 EP MM RAYMOND 1989-09-27 15:00:00 TS 16.0281 -103.643 main 246 246 P_________P___ EP211989 16.0300 -103.650 TS 42 1000 0 16.0224 -103.621 2 41 5 246
1989268N14261 1989 104 EP MM RAYMOND 1989-09-27 18:00:00 TS 15.8950 -103.886 45 1000 hurdat_epa main 267 267 O_________P___ hurdat_epa EP211989 15.9000 -103.900 TS 45 1000 0 15.8799 -103.843 2 42 5 236
1989268N14261 1989 104 EP MM RAYMOND 1989-09-27 21:00:00 TS 15.7318 -104.098 main 295 295 P_________P___ EP211989 15.7350 -104.108 TS 45 999 0 15.7224 -104.068 2 43 5 234
1989268N14261 1989 104 EP MM RAYMOND 1989-09-28 00:00:00 TS 15.6000 -104.300 45 999 hurdat_epa main 313 313 O_________O___ hurdat_epa EP211989 15.6000 -104.300 TS 45 999 0 15.6000 -104.300 2 45 4 247
1989268N14261 1989 104 EP MM RAYMOND 1989-09-28 03:00:00 TS 15.5693 -104.494 main 320 320 P_________P___ EP211989 15.5699 -104.485 TS 47 998 0 15.5673 -104.521 2 47 4 269
1989268N14261 1989 104 EP MM RAYMOND 1989-09-28 06:00:00 TS 15.5945 -104.713 50 997 hurdat_epa main 328 328 O_________P___ hurdat_epa EP211989 15.6000 -104.700 TS 50 997 0 15.5782 -104.752 2 50 5 278
1989268N14261 1989 104 EP MM RAYMOND 1989-09-28 09:00:00 TS 15.6325 -104.985 main 341 337 P_________P___ EP211989 15.6350 -104.978 TS 52 995 0 15.6250 -105.007 2 52 6 281
1989268N14261 1989 104 EP MM RAYMOND 1989-09-28 12:00:00 TS 15.7000 -105.300 55 994 hurdat_epa main 348 348 O_________O___ hurdat_epa EP211989 15.7000 -105.300 TS 55 994 0 15.7000 -105.300 2 55 7 286
1989268N14261 1989 104 EP MM RAYMOND 1989-09-28 15:00:00 TS 15.8078 -105.634 main 357 357 P_________P___ EP211989 15.8074 -105.635 TS 60 990 0 15.8089 -105.632 2 60 7 287
1989268N14261 1989 104 EP MM RAYMOND 1989-09-28 18:00:00 TS 15.9000 -106.000 65 987 hurdat_epa main 377 377 O_________O___ hurdat_epa EP211989 15.9000 -106.000 HU 65 987 1 15.9000 -106.000 3 65 7 279
1989268N14261 1989 104 EP MM RAYMOND 1989-09-28 21:00:00 TS 15.9221 -106.394 main 406 406 P_________P___ EP211989 15.9225 -106.393 HU 70 983 1 15.9212 -106.397 3 70 8 270
1989268N14261 1989 104 EP MM RAYMOND 1989-09-29 00:00:00 TS 15.9000 -106.800 75 980 hurdat_epa main 425 425 O_________O___ hurdat_epa EP211989 15.9000 -106.800 HU 75 980 1 15.9000 -106.800 4 75 8 265
1989268N14261 1989 104 EP MM RAYMOND 1989-09-29 03:00:00 TS 15.8562 -107.204 main 448 448 P_________P___ EP211989 15.8575 -107.215 HU 77 977 1 15.8523 -107.170 4 78 8 262
1989268N14261 1989 104 EP MM RAYMOND 1989-09-29 06:00:00 TS 15.7965 -107.580 80 975 hurdat_epa main 482 482 O_________P___ hurdat_epa EP211989 15.8000 -107.600 HU 80 975 1 15.7860 -107.521 4 82 7 260
1989268N14261 1989 104 EP MM RAYMOND 1989-09-29 09:00:00 TS 15.7385 -107.896 main 511 511 P_________P___ EP211989 15.7424 -107.908 HU 85 972 2 15.7268 -107.861 4 86 6 261
1989268N14261 1989 104 EP MM RAYMOND 1989-09-29 12:00:00 TS 15.7000 -108.200 90 970 hurdat_epa main 532 532 O_________O___ hurdat_epa EP211989 15.7000 -108.200 HU 90 970 2 15.7000 -108.200 4 90 6 265
1989268N14261 1989 104 EP MM RAYMOND 1989-09-29 15:00:00 TS 15.6851 -108.539 main 554 554 P_________P___ EP211989 15.6700 -108.543 HU 92 967 2 15.7305 -108.530 4 92 7 272
1989268N14261 1989 104 EP MM RAYMOND 1989-09-29 18:00:00 TS 15.7242 -108.891 95 965 hurdat_epa main 584 584 O_________P___ hurdat_epa EP211989 15.7000 -108.900 HU 95 965 2 15.7969 -108.863 4 95 7 284
1989268N14261 1989 104 EP MM RAYMOND 1989-09-29 21:00:00 TS 15.8486 -109.230 main 600 592 P_________P___ EP211989 15.8349 -109.235 HU 97 962 3 15.8898 -109.214 4 97 7 292
1989268N14261 1989 104 EP MM RAYMOND 1989-09-30 00:00:00 TS 16.0000 -109.600 100 960 hurdat_epa main 615 615 O_________O___ hurdat_epa EP211989 16.0000 -109.600 HU 100 960 3 16.0000 -109.600 4 100 8 288
1989268N14261 1989 104 EP MM RAYMOND 1989-09-30 03:00:00 TS 16.1026 -110.030 main 639 639 P_________P___ EP211989 16.0999 -110.028 HU 102 958 3 16.1107 -110.039 4 102 9 284
1989268N14261 1989 104 EP MM RAYMOND 1989-09-30 06:00:00 TS 16.2088 -110.503 105 957 hurdat_epa main 675 675 O_________P___ hurdat_epa EP211989 16.2000 -110.500 HU 105 957 3 16.2350 -110.512 4 105 10 285
1989268N14261 1989 104 EP MM RAYMOND 1989-09-30 09:00:00 TS 16.3542 -110.996 main 706 706 P_________P___ EP211989 16.3499 -110.992 HU 107 955 3 16.3669 -111.005 4 107 10 287
1989268N14261 1989 104 EP MM RAYMOND 1989-09-30 12:00:00 TS 16.5000 -111.500 110 953 hurdat_epa main 732 729 O_________O___ hurdat_epa EP211989 16.5000 -111.500 HU 110 953 3 16.5000 -111.500 4 110 10 285
1989268N14261 1989 104 EP MM RAYMOND 1989-09-30 15:00:00 TS 16.6041 -112.001 main 735 730 P_________P___ EP211989 16.5999 -112.008 HU 112 950 3 16.6166 -111.979 4 113 10 282
1989268N14261 1989 104 EP MM RAYMOND 1989-09-30 18:00:00 TS 16.7087 -112.489 115 948 hurdat_epa main 741 738 O_________P___ hurdat_epa EP211989 16.7000 -112.500 HU 115 948 4 16.7347 -112.458 4 117 9 285
1989268N14261 1989 104 EP MM RAYMOND 1989-09-30 21:00:00 TS 16.8412 -112.951 main 750 740 P_________P___ EP211989 16.8349 -112.958 HU 120 941 4 16.8604 -112.933 4 121 9 288
1989268N14261 1989 104 EP MM RAYMOND 1989-10-01 00:00:00 TS 17.0000 -113.400 125 935 hurdat_epa main 749 744 O_________O___ hurdat_epa EP211989 17.0000 -113.400 HU 125 935 4 17.0000 -113.400 4 125 9 292
1989268N14261 1989 104 EP MM RAYMOND 1989-10-01 03:00:00 TS 17.1900 -113.855 main 756 752 P_________P___ EP211989 17.1999 -113.850 HU 125 935 4 17.1604 -113.869 4 123 9 294
1989268N14261 1989 104 EP MM RAYMOND 1989-10-01 06:00:00 TS 17.3837 -114.308 125 935 hurdat_epa main 761 761 O_________P___ hurdat_epa EP211989 17.4000 -114.300 HU 125 935 4 17.3348 -114.330 4 122 9 292
1989268N14261 1989 104 EP MM RAYMOND 1989-10-01 09:00:00 TS 17.5416 -114.762 main 784 775 P_________P___ EP211989 17.5499 -114.758 HU 122 937 4 17.5167 -114.776 4 121 9 290
1989268N14261 1989 104 EP MM RAYMOND 1989-10-01 12:00:00 TS 17.7000 -115.200 120 940 hurdat_epa main 794 793 O_________O___ hurdat_epa EP211989 17.7000 -115.200 HU 120 940 4 17.7000 -115.200 4 120 9 294
1989268N14261 1989 104 EP MM RAYMOND 1989-10-01 15:00:00 TS 17.8967 -115.616 main 808 807 P_________P___ EP211989 17.8999 -115.615 HU 117 942 4 17.8870 -115.621 4 117 9 297
1989268N14261 1989 104 EP MM RAYMOND 1989-10-01 18:00:00 TS 18.0931 -116.004 115 945 hurdat_epa main 823 823 O_________P___ hurdat_epa EP211989 18.1000 -116.000 HU 115 945 4 18.0724 -116.017 4 115 8 297
1989268N14261 1989 104 EP MM RAYMOND 1989-10-01 21:00:00 TS 18.2604 -116.374 main 840 840 P_________P___ EP211989 18.2650 -116.373 HU 112 947 3 18.2465 -116.380 4 112 7 295
1989268N14261 1989 104 EP MM RAYMOND 1989-10-02 00:00:00 TS 18.4000 -116.700 110 950 hurdat_epa main 849 846 O_________O___ hurdat_epa EP211989 18.4000 -116.700 HU 110 950 3 18.4000 -116.700 4 110 6 294
1989268N14261 1989 104 EP MM RAYMOND 1989-10-02 03:00:00 TS 18.5089 -116.976 main 858 855 P_________P___ EP211989 18.5074 -116.973 HU 110 952 3 18.5131 -116.985 4 108 5 293
1989268N14261 1989 104 EP MM RAYMOND 1989-10-02 06:00:00 TS 18.6018 -117.206 110 955 hurdat_epa main 861 859 O_________P___ hurdat_epa EP211989 18.6000 -117.200 HU 110 955 3 18.6072 -117.225 4 107 5 294
1989268N14261 1989 104 EP MM RAYMOND 1989-10-02 09:00:00 TS 18.6938 -117.418 main 865 863 P_________P___ EP211989 18.6925 -117.415 HU 107 956 3 18.6976 -117.428 4 106 4 298
1989268N14261 1989 104 EP MM RAYMOND 1989-10-02 12:00:00 TS 18.8000 -117.600 105 958 hurdat_epa main 870 868 O_________O___ hurdat_epa EP211989 18.8000 -117.600 HU 105 958 3 18.8000 -117.600 4 105 4 306
1989268N14261 1989 104 EP MM RAYMOND 1989-10-02 15:00:00 TS 18.9387 -117.771 main 875 865 P_________P___ EP211989 18.9425 -117.765 HU 102 959 3 18.9274 -117.790 4 102 4 315
1989268N14261 1989 104 EP MM RAYMOND 1989-10-02 18:00:00 TS 19.0925 -117.912 100 961 hurdat_epa main 865 864 O_________P___ hurdat_epa EP211989 19.1000 -117.900 HU 100 961 3 19.0699 -117.947 4 100 4 320
1989268N14261 1989 104 EP MM RAYMOND 1989-10-02 21:00:00 TS 19.2406 -118.036 main 864 856 P_________P___ EP211989 19.2425 -118.030 HU 97 964 3 19.2274 -118.056 4 97 4 330
1989268N14261 1989 104 EP MM RAYMOND 1989-10-03 00:00:00 TS 19.4000 -118.100 95 967 hurdat_epa main 856 840 O_________O___ hurdat_epa EP211989 19.4000 -118.100 HU 95 967 2 19.4000 -118.100 4 95 3 355
1989268N14261 1989 104 EP MM RAYMOND 1989-10-03 03:00:00 TS 19.5703 -118.087 main 840 825 P_________P___ EP211989 19.5925 -118.088 HU 92 968 2 19.5611 -118.085 4 91 4 15
1989268N14261 1989 104 EP MM RAYMOND 1989-10-03 06:00:00 TS 19.7600 -118.001 90 970 hurdat_epa main 817 801 O_________P___ hurdat_epa EP211989 19.8000 -118.000 HU 90 970 2 19.7398 -118.005 4 87 4 27
1989268N14261 1989 104 EP MM RAYMOND 1989-10-03 09:00:00 TS 19.9615 -117.872 main 794 763 P_________P___ EP211989 19.9850 -117.872 HU 85 972 2 19.9486 -117.872 4 83 5 33
1989268N14261 1989 104 EP MM RAYMOND 1989-10-03 12:00:00 TS 20.2000 -117.700 80 974 hurdat_epa main 763 725 O_________O___ hurdat_epa EP211989 20.2000 -117.700 HU 80 974 1 20.2000 -117.700 4 80 6 33
1989268N14261 1989 104 EP MM RAYMOND 1989-10-03 15:00:00 TS 20.4729 -117.518 main 725 687 P_________P___ EP211989 20.4700 -117.515 HU 77 976 1 20.4743 -117.527 4 77 7 32
1989268N14261 1989 104 EP MM RAYMOND 1989-10-03 18:00:00 TS 20.7987 -117.304 75 978 hurdat_epa main 687 649 O_________P___ hurdat_epa EP211989 20.8000 -117.300 HU 75 978 1 20.7949 -117.317 4 75 8 31
1989268N14261 1989 104 EP MM RAYMOND 1989-10-03 21:00:00 TS 21.1638 -117.072 main 642 590 P_________P___ EP211989 21.1624 -117.072 HU 72 979 1 21.1680 -117.073 4 72 9 30
1989268N14261 1989 104 EP MM RAYMOND 1989-10-04 00:00:00 TS 21.6000 -116.800 70 981 hurdat_epa main 590 532 O_________O___ hurdat_epa EP211989 21.6000 -116.800 HU 70 981 1 21.6000 -116.800 4 70 11 30
1989268N14261 1989 104 EP MM RAYMOND 1989-10-04 03:00:00 TS 22.1086 -116.478 main 532 475 P_________P___ EP211989 22.1276 -116.458 HU 67 983 1 22.0515 -116.538 4 67 12 30
1989268N14261 1989 104 EP MM RAYMOND 1989-10-04 06:00:00 TS 22.6661 -116.136 65 985 hurdat_epa main 460 416 O_________P___ hurdat_epa EP211989 22.7000 -116.100 HU 65 985 1 22.5643 -116.244 4 65 13 28
1989268N14261 1989 104 EP MM RAYMOND 1989-10-04 09:00:00 TS 23.2123 -115.838 main 406 352 P_________P___ EP211989 23.2347 -115.822 HU 62 986 0 23.1450 -115.903 4 62 13 27
1989268N14261 1989 104 EP MM RAYMOND 1989-10-04 12:00:00 TS 23.8000 -115.500 60 988 hurdat_epa main 352 296 O_________O___ hurdat_epa EP211989 23.8000 -115.500 TS 60 988 0 23.8000 -115.500 2 60 14 31
1989268N14261 1989 104 EP MM RAYMOND 1989-10-04 15:00:00 TS 24.4098 -115.067 main 296 204 P_________P___ EP211989 24.3744 -115.045 TS 57 990 0 24.4631 -115.047 2 56 16 33
1989268N14261 1989 104 EP MM RAYMOND 1989-10-04 18:00:00 TS 25.1262 -114.557 55 992 hurdat_epa main 204 87 O_________P___ hurdat_epa EP211989 25.1000 -114.500 TS 55 992 0 25.2047 -114.527 2 52 19 31
1989268N14261 1989 104 EP MM RAYMOND 1989-10-04 21:00:00 TS 26.0380 -114.006 main 87 11 P_________P___ EP211989 26.1919 -113.908 TS 49 993 0 26.0439 -113.944 2 48 21 30
1989268N14261 1989 104 EP MM RAYMOND 1989-10-04 23:00:00 TS 26.6198 -113.608 45 995 hurdat_epa main 11 0 O_________P___ hurdat_epa EP211989 26.8000 -113.500 L TS 45 995 0 26.6671 -113.522 2 46 20 33
1989268N14261 1989 104 EP MM RAYMOND 1989-10-05 00:00:00 TS 26.8750 -113.400 45 996 hurdat_epa main 0 0 O_________O___ hurdat_epa EP211989 27.0000 -113.300 TS 45 996 0 27.0000 -113.300 2 45 24 30
1989268N14261 1989 104 EP MM RAYMOND 1989-10-05 03:00:00 TS 27.9827 -112.711 main 9 9 P_________P___ EP211989 28.1114 -112.637 TS 39 998 0 28.1776 -112.660 2 40 27 28
1989268N14261 1989 104 EP MM RAYMOND 1989-10-05 05:00:00 TS 28.8443 -112.225 35 1000 hurdat_epa main 22 0 O_________P___ hurdat_epa EP211989 29.0000 -112.200 L TS 35 1000 0 29.0238 -112.194 2 36 29 26
1989268N14261 1989 104 EP MM RAYMOND 1989-10-05 06:00:00 TS 29.2938 -111.986 35 1000 hurdat_epa main 0 0 O_________P___ hurdat_epa EP211989 29.4000 -112.000 TS 35 1000 0 29.4517 -111.946 2 35 30 28
1989268N14261 1989 104 EP MM RAYMOND 1989-10-05 09:00:00 TS 30.6064 -111.170 main 0 0 P_________P___ EP211989 30.6478 -111.206 TS 30 1001 -1 30.7001 -111.134 2 30 29 32
1989268N14261 1989 104 EP MM RAYMOND 1989-10-05 12:00:00 TS 31.8000 -110.200 25 1003 hurdat_epa main 0 0 O_________O___ hurdat_epa EP211989 31.8000 -110.200 TD 25 1003 -1 31.8000 -110.200 1 25 27 40
1989268N14261 1989 104 EP MM RAYMOND 1989-10-05 15:00:00 TS 32.6807 -109.124 main 0 0 P_________P___ EP211989 32.6857 -109.117 TD 22 1005 -1 32.6707 -109.139 1 22 24 49
1989268N14261 1989 104 EP MM RAYMOND 1989-10-05 18:00:00 TS 33.4000 -108.000 20 1007 hurdat_epa main 0 O_________O___ hurdat_epa EP211989 33.4000 -108.000 TD 20 1007 -1 33.4000 -108.000 1 20 24 53

IBTrACS Databaseについて

本データベースは、米国NOAAが公開する1842年以降の世界の熱帯低気圧のベストトラックデータアーカイブInternational Best Track Archive for Climate Stewardship (IBTrACS)を、ウェブで閲覧しやすい形式に変換したものです。

最終更新日:2021-10-19